Winter Park, Florida
Current Conditions -  °F | °C
As of 11:53 AM on Saturday 22 Nov 2014 (Local Time) from KORL Reporting Station
Overcast Overcast  
Wind Chill: 71°   Ceiling: 2800
Heat Index: 71°   Visibility: 9mi
Dew Point: 65°   Wind: 12mph
Humidity: 81%   Direction: 70°ENE
Pressure: 30.26"   Gusts: NA
Location:  28.59°N, 81.35°W
Report Text: KORL 221653Z 07010KT 9SM BKN028 OVC036 22/18 A3026 RMK AO2 SLP249 T02170183
Loading
Personal Weather Stations






























Interactive Weather Map New forecast layout! Learn more

10-Day Weather Forecast

Advertisements
Track Severe Weather on mobile